Time;durP1;ratioP1;P1;durP2;ratioP2;P2;SDS_P1;SDS_P2;PMS_P1;PMS_P2;Temp;Humidity;BMP_temperature;BMP_pressure;BME280_temperature;BME280_humidity;BME280_pressure;Samples;Min_cycle;Max_cycle;Signal;HPM_P1;HPM_P2
2022/10/31 00:01:30;;;;;;;5.35;3.13;;;;;;;;;;5115329;28;20077;-87
2022/10/31 00:03:56;;;;;;;5.50;2.97;;;;;;;;;;5110738;28;20093;-85
2022/10/31 00:06:23;;;;;;;5.30;3.97;;;;;;;;;;5115015;28;20102;-83
2022/10/31 00:09:08;;;;;;;4.93;2.78;;;;;;;;;;5115173;28;20023;-84
2022/10/31 00:11:34;;;;;;;4.43;2.97;;;;;;;;;;5115070;28;20023;-88
2022/10/31 00:14:00;;;;;;;7.40;3.67;;;;;;;;;;5114940;28;20091;-84
2022/10/31 00:16:27;;;;;;;3.70;2.42;;;;;;;;;;5113789;28;20058;-86
2022/10/31 00:18:54;;;;;;;5.00;3.15;;;;;;;;;;5114393;28;20031;-80
2022/10/31 00:21:21;;;;;;;5.72;3.47;;;;;;;;;;5111543;28;20378;-82
2022/10/31 00:23:47;;;;;;;5.47;3.35;;;;;;;;;;5114166;28;20530;-84
2022/10/31 00:26:13;;;;;;;4.22;3.05;;;;;;;;;;5113799;28;20020;-82
2022/10/31 00:28:39;;;;;;;4.28;3.28;;;;;;;;;;5111154;28;20107;-84
2022/10/31 00:31:07;;;;;;;6.45;3.85;;;;;;;;;;5113741;28;20023;-85
2022/10/31 00:33:34;;;;;;;3.70;3.03;;;;;;;;;;5113936;28;20025;-84
2022/10/31 00:36:01;;;;;;;5.07;3.10;;;;;;;;;;5111300;28;20066;-83
2022/10/31 00:38:27;;;;;;;5.47;3.17;;;;;;;;;;5113850;28;20020;-82
2022/10/31 00:40:53;;;;;;;4.55;3.13;;;;;;;;;;5113340;28;20035;-82
2022/10/31 00:43:19;;;;;;;6.50;3.85;;;;;;;;;;5110757;28;20537;-83
2022/10/31 00:45:45;;;;;;;4.68;3.15;;;;;;;;;;5113788;28;20479;-85
2022/10/31 00:48:11;;;;;;;6.70;4.07;;;;;;;;;;5113456;28;20103;-83
2022/10/31 00:50:37;;;;;;;3.78;3.13;;;;;;;;;;5113520;28;20111;-83
2022/10/31 00:53:04;;;;;;;5.53;3.17;;;;;;;;;;5096758;28;20051;-83
2022/10/31 00:55:30;;;;;;;5.30;3.10;;;;;;;;;;5092209;28;20019;-86
2022/10/31 00:57:56;;;;;;;6.63;3.55;;;;;;;;;;5092082;28;20088;-83
2022/10/31 01:00:22;;;;;;;6.60;3.95;;;;;;;;;;5092068;28;20502;-82
2022/10/31 01:02:48;;;;;;;4.80;3.38;;;;;;;;;;5092567;28;20383;-82
2022/10/31 01:05:15;;;;;;;4.78;3.50;;;;;;;;;;5091963;28;20063;-85
2022/10/31 01:07:41;;;;;;;6.00;3.60;;;;;;;;;;5075356;28;20427;-84
2022/10/31 01:10:08;;;;;;;7.10;3.70;;;;;;;;;;5093423;28;20031;-83
2022/10/31 01:12:38;;;;;;;6.28;3.60;;;;;;;;;;5093299;28;20375;-85
2022/10/31 01:15:04;;;;;;;6.13;4.38;;;;;;;;;;5075156;28;20471;-83
2022/10/31 01:17:30;;;;;;;7.57;4.43;;;;;;;;;;5093110;28;20024;-82
2022/10/31 01:19:56;;;;;;;5.75;3.35;;;;;;;;;;5093394;28;20142;-80
2022/10/31 01:22:22;;;;;;;5.07;3.10;;;;;;;;;;5074745;28;20039;-84
2022/10/31 01:24:48;;;;;;;4.78;3.70;;;;;;;;;;5093236;28;20098;-83
2022/10/31 01:27:14;;;;;;;4.85;3.38;;;;;;;;;;5093097;28;20028;-83
2022/10/31 01:29:40;;;;;;;5.68;3.53;;;;;;;;;;5093032;28;20375;-83
2022/10/31 01:32:06;;;;;;;14.77;13.00;;;;;;;;;;5093101;28;20044;-82
2022/10/31 01:34:32;;;;;;;9.60;6.50;;;;;;;;;;5074626;28;20366;-81
2022/10/31 01:36:58;;;;;;;4.90;3.95;;;;;;;;;;5074864;28;20035;-82
2022/10/31 01:39:24;;;;;;;6.05;4.22;;;;;;;;;;5074754;28;20066;-83
2022/10/31 01:41:52;;;;;;;5.45;4.00;;;;;;;;;;5092692;28;20024;-83
2022/10/31 01:44:18;;;;;;;6.68;3.75;;;;;;;;;;5092595;28;20034;-81
2022/10/31 01:47:02;;;;;;;5.78;3.72;;;;;;;;;;5092847;28;20107;-82
2022/10/31 01:49:47;;;;;;;6.40;4.45;;;;;;;;;;5092688;28;20031;-81
2022/10/31 01:52:17;;;;;;;8.38;4.18;;;;;;;;;;5092045;28;20048;-83
2022/10/31 01:54:46;;;;;;;5.25;4.22;;;;;;;;;;5092495;28;20028;-82
2022/10/31 01:57:13;;;;;;;7.85;4.38;;;;;;;;;;5092450;28;20039;-82
2022/10/31 01:59:41;;;;;;;6.25;3.97;;;;;;;;;;5092619;28;20490;-82
2022/10/31 02:02:07;;;;;;;5.97;4.32;;;;;;;;;;5086808;28;20052;-82
2022/10/31 02:04:34;;;;;;;5.22;4.03;;;;;;;;;;5091917;28;20050;-85
2022/10/31 02:07:05;;;;;;;5.03;3.92;;;;;;;;;;5092056;28;20024;-84
2022/10/31 02:09:32;;;;;;;6.03;4.13;;;;;;;;;;5091954;28;20094;-83
2022/10/31 02:11:59;;;;;;;6.13;4.43;;;;;;;;;;5091825;28;20012;-81
2022/10/31 02:14:26;;;;;;;6.18;4.28;;;;;;;;;;5092025;28;20142;-83
2022/10/31 02:16:54;;;;;;;5.57;4.28;;;;;;;;;;5092025;28;20494;-82
2022/10/31 02:19:38;;;;;;;5.88;3.88;;;;;;;;;;5091964;28;20021;-84
2022/10/31 02:22:23;;;;;;;6.65;4.65;;;;;;;;;;5090163;28;20364;-84
2022/10/31 02:24:52;;;;;;;6.15;3.83;;;;;;;;;;5091826;28;20024;-82
2022/10/31 02:27:24;;;;;;;5.75;4.20;;;;;;;;;;5089285;28;20074;-81
2022/10/31 02:29:56;;;;;;;7.57;5.15;;;;;;;;;;5091878;28;20031;-85
2022/10/31 02:32:41;;;;;;;8.10;4.55;;;;;;;;;;5089922;28;20051;-84
2022/10/31 02:35:07;;;;;;;;;;;;;;;;;;5072682;28;20024;-80
2022/10/31 02:37:51;;;;;;;6.25;4.55;;;;;;;;;;5091734;28;19919;-82
2022/10/31 02:40:17;;;;;;;;;;;;;;;;;;5089554;28;20429;-81
2022/10/31 02:42:49;;;;;;;6.72;4.65;;;;;;;;;;5091714;28;19904;-82
2022/10/31 02:45:23;;;;;;;7.10;3.97;;;;;;;;;;5091619;28;20020;-84
2022/10/31 02:47:50;;;;;;;8.30;5.65;;;;;;;;;;5091483;28;20387;-85
2022/10/31 02:50:35;;;;;;;7.88;4.65;;;;;;;;;;5088969;28;20017;-80
2022/10/31 02:53:01;;;;;;;8.73;4.97;;;;;;;;;;5086871;28;20047;-81
2022/10/31 02:55:27;;;;;;;7.00;4.55;;;;;;;;;;5111691;28;20104;-83
2022/10/31 02:57:57;;;;;;;8.23;4.53;;;;;;;;;;5111884;28;20530;-84
2022/10/31 03:00:23;;;;;;;5.32;4.32;;;;;;;;;;5093502;28;20015;-83
2022/10/31 03:03:09;;;;;;;7.38;4.35;;;;;;;;;;5111928;28;20024;-84
2022/10/31 03:05:38;;;;;;;7.65;5.20;;;;;;;;;;5114986;28;20020;-83
2022/10/31 03:08:19;;;;;;;6.25;4.50;;;;;;;;;;5115487;28;20537;-83
2022/10/31 03:10:59;;;;;;;6.03;4.22;;;;;;;;;;5095598;28;20367;-81
2022/10/31 03:13:44;;;;;;;7.97;5.55;;;;;;;;;;5113606;28;20065;-83
2022/10/31 03:16:28;;;;;;;7.55;5.07;;;;;;;;;;5114233;28;20019;-84
2022/10/31 03:18:58;;;;;;;7.35;5.30;;;;;;;;;;5114898;28;20024;-83
2022/10/31 03:21:42;;;;;;;6.38;4.50;;;;;;;;;;5114907;28;20023;-81
2022/10/31 03:24:10;;;;;;;7.55;4.78;;;;;;;;;;5114018;28;20421;-81
2022/10/31 03:26:37;;;;;;;8.50;4.57;;;;;;;;;;5096926;28;20020;-83
2022/10/31 03:29:05;;;;;;;6.45;4.40;;;;;;;;;;5114841;28;20023;-83
2022/10/31 03:31:34;;;;;;;8.45;5.10;;;;;;;;;;5096973;28;21229;-84
2022/10/31 03:34:01;;;;;;;6.55;4.60;;;;;;;;;;5112739;28;20371;-83
2022/10/31 03:36:30;;;;;;;6.20;4.43;;;;;;;;;;5114977;28;20091;-84
2022/10/31 03:38:57;;;;;;;7.28;4.78;;;;;;;;;;5114767;28;20027;-80
2022/10/31 03:41:25;;;;;;;7.28;5.43;;;;;;;;;;5114946;28;20543;-85
2022/10/31 03:44:10;;;;;;;6.13;4.50;;;;;;;;;;5114831;28;20032;-82
2022/10/31 03:46:36;;;;;;;7.78;5.45;;;;;;;;;;5115019;28;20069;-85
2022/10/31 03:49:03;;;;;;;8.75;5.35;;;;;;;;;;5114761;28;20024;-83
2022/10/31 03:51:55;;;;;;;7.35;4.95;;;;;;;;;;5114698;28;20022;-86
2022/10/31 03:54:21;;;;;;;6.65;5.28;;;;;;;;;;5083028;28;20028;-81
2022/10/31 03:56:51;;;;;;;8.35;5.28;;;;;;;;;;5114280;28;20493;-82
2022/10/31 03:59:20;;;;;;;6.85;4.97;;;;;;;;;;5111596;28;20504;-82
2022/10/31 04:01:48;;;;;;;6.00;4.60;;;;;;;;;;5096212;28;20381;-83
2022/10/31 04:04:14;;;;;;;9.40;4.97;;;;;;;;;;5096738;28;20032;-85
2022/10/31 04:06:42;;;;;;;8.43;5.38;;;;;;;;;;5114478;28;20554;-82
2022/10/31 04:09:09;;;;;;;15.43;13.70;;;;;;;;;;5115076;28;20069;-85
2022/10/31 04:11:37;;;;;;;18.67;14.20;;;;;;;;;;5114895;28;20019;-82
2022/10/31 04:14:05;;;;;;;8.80;5.82;;;;;;;;;;5115005;28;20612;-82
2022/10/31 04:16:31;;;;;;;7.78;5.60;;;;;;;;;;5113941;28;20076;-82
2022/10/31 04:18:57;;;;;;;9.10;6.25;;;;;;;;;;5114955;28;20028;-81
2022/10/31 04:21:45;;;;;;;8.45;5.60;;;;;;;;;;5114594;28;20027;-81
2022/10/31 04:24:11;;;;;;;9.95;7.38;;;;;;;;;;5114514;28;20096;-83
2022/10/31 04:26:37;;;;;;;10.57;7.93;;;;;;;;;;5096398;28;20028;-84
2022/10/31 04:29:03;;;;;;;12.40;10.68;;;;;;;;;;5095910;28;20428;-85
2022/10/31 04:31:30;;;;;;;11.43;8.70;;;;;;;;;;5096232;28;20020;-81
2022/10/31 04:33:56;;;;;;;7.47;6.20;;;;;;;;;;5114610;28;20023;-84
2022/10/31 04:36:22;;;;;;;7.78;5.85;;;;;;;;;;5114302;28;20023;-84
2022/10/31 04:38:48;;;;;;;7.45;6.57;;;;;;;;;;5114459;28;20042;-85
2022/10/31 04:41:14;;;;;;;15.60;11.90;;;;;;;;;;5114344;28;20027;-85
2022/10/31 04:43:40;;;;;;;9.50;7.80;;;;;;;;;;5114556;28;20098;-84
2022/10/31 04:46:06;;;;;;;19.35;14.00;;;;;;;;;;5114461;28;20031;-85
2022/10/31 04:48:32;;;;;;;9.15;7.25;;;;;;;;;;5113322;28;20106;-85
2022/10/31 04:50:59;;;;;;;7.45;5.75;;;;;;;;;;5113876;28;20019;-85
2022/10/31 04:53:25;;;;;;;5.38;4.60;;;;;;;;;;5113607;28;20108;-86
2022/10/31 04:55:51;;;;;;;8.63;5.80;;;;;;;;;;5113969;28;20124;-85
2022/10/31 04:58:17;;;;;;;8.80;7.57;;;;;;;;;;5095721;28;20098;-84
2022/10/31 05:00:43;;;;;;;9.75;7.03;;;;;;;;;;5114075;28;20474;-83
2022/10/31 05:03:09;;;;;;;9.23;6.15;;;;;;;;;;5095845;28;20418;-82
2022/10/31 05:05:35;;;;;;;7.70;5.60;;;;;;;;;;5113451;28;20022;-84
2022/10/31 05:08:01;;;;;;;7.53;5.70;;;;;;;;;;5110363;28;20069;-83
2022/10/31 05:10:29;;;;;;;8.85;5.95;;;;;;;;;;5112556;28;20051;-82
2022/10/31 05:12:57;;;;;;;7.15;5.13;;;;;;;;;;5113284;28;20020;-82
2022/10/31 05:15:24;;;;;;;8.07;6.30;;;;;;;;;;5095152;28;20387;-85
2022/10/31 05:17:50;;;;;;;12.05;6.88;;;;;;;;;;5113670;28;20026;-84
2022/10/31 05:20:17;;;;;;;13.98;7.07;;;;;;;;;;5113632;28;20020;-83
2022/10/31 05:22:50;;;;;;;6.85;6.15;;;;;;;;;;5113538;28;20463;-82
2022/10/31 05:25:17;;;;;;;7.60;5.38;;;;;;;;;;5095235;28;20054;-80
2022/10/31 05:27:44;;;;;;;7.85;5.47;;;;;;;;;;5095126;28;20427;-81
2022/10/31 05:30:12;;;;;;;8.75;4.97;;;;;;;;;;5113326;28;20016;-82
2022/10/31 05:32:38;;;;;;;8.07;5.30;;;;;;;;;;5112873;28;20023;-82
2022/10/31 05:35:05;;;;;;;8.02;5.32;;;;;;;;;;5094040;28;20050;-81
2022/10/31 05:37:31;;;;;;;9.65;5.97;;;;;;;;;;5113116;28;20051;-80
2022/10/31 05:39:57;;;;;;;10.35;6.15;;;;;;;;;;5113373;28;20095;-81
2022/10/31 05:42:23;;;;;;;8.45;6.30;;;;;;;;;;5112599;28;20073;-81
2022/10/31 05:44:49;;;;;;;9.35;6.07;;;;;;;;;;5113290;28;20039;-80
2022/10/31 05:47:15;;;;;;;9.07;6.30;;;;;;;;;;5112213;28;20027;-81
2022/10/31 05:49:41;;;;;;;7.45;6.03;;;;;;;;;;5112588;28;20024;-81
2022/10/31 05:52:07;;;;;;;21.45;16.10;;;;;;;;;;5112961;28;20055;-81
2022/10/31 05:54:33;;;;;;;10.13;5.70;;;;;;;;;;5112428;28;20024;-80
2022/10/31 05:56:59;;;;;;;7.80;5.07;;;;;;;;;;5113026;28;20082;-81
2022/10/31 05:59:26;;;;;;;8.35;5.32;;;;;;;;;;5112383;28;20517;-81
2022/10/31 06:01:52;;;;;;;8.80;6.15;;;;;;;;;;5104631;28;20028;-81
2022/10/31 06:04:18;;;;;;;9.85;5.60;;;;;;;;;;5112119;28;20020;-81
2022/10/31 06:06:44;;;;;;;10.43;6.97;;;;;;;;;;5112587;28;20026;-81
2022/10/31 06:09:10;;;;;;;13.02;8.93;;;;;;;;;;5112787;28;20028;-82
2022/10/31 06:11:36;;;;;;;13.82;9.65;;;;;;;;;;5112571;28;20348;-81
2022/10/31 06:14:02;;;;;;;12.88;8.60;;;;;;;;;;5112822;28;20031;-81
2022/10/31 06:16:28;;;;;;;15.05;10.00;;;;;;;;;;5112082;28;20024;-81
2022/10/31 06:18:54;;;;;;;25.40;15.63;;;;;;;;;;5112209;28;20031;-81
2022/10/31 06:21:20;;;;;;;17.45;11.95;;;;;;;;;;5087818;28;20023;-80
2022/10/31 06:23:46;;;;;;;11.68;8.60;;;;;;;;;;5110334;28;20382;-81
2022/10/31 06:26:12;;;;;;;12.88;9.48;;;;;;;;;;5096779;28;20038;-80
2022/10/31 06:28:38;;;;;;;22.98;8.18;;;;;;;;;;5111531;28;20049;-81
2022/10/31 06:31:04;;;;;;;12.05;6.72;;;;;;;;;;5109941;28;20514;-81
2022/10/31 06:33:31;;;;;;;10.63;6.57;;;;;;;;;;5101132;28;20028;-85
2022/10/31 06:36:15;;;;;;;7.70;6.05;;;;;;;;;;5107426;28;20113;-86
2022/10/31 06:38:42;;;;;;;9.77;6.22;;;;;;;;;;5083514;28;20031;-83
2022/10/31 06:41:08;;;;;;;12.23;6.68;;;;;;;;;;5116363;27;20023;-83
2022/10/31 06:43:34;;;;;;;46.40;11.45;;;;;;;;;;5112733;27;20114;-85
2022/10/31 06:46:09;;;;;;;14.10;9.23;;;;;;;;;;5095275;28;20031;-83
2022/10/31 06:48:38;;;;;;;15.55;8.18;;;;;;;;;;5102619;27;20020;-87
2022/10/31 06:51:04;;;;;;;12.88;7.75;;;;;;;;;;5116553;27;20023;-84
2022/10/31 06:53:34;;;;;;;12.38;9.38;;;;;;;;;;5101583;28;20058;-86
2022/10/31 06:56:09;;;;;;;20.25;16.30;;;;;;;;;;5111314;28;20031;-84
2022/10/31 06:58:38;;;;;;;16.05;12.95;;;;;;;;;;5111791;28;20100;-83
2022/10/31 07:01:31;;;;;;;14.80;11.38;;;;;;;;;;5103521;28;20396;-86
2022/10/31 07:04:07;;;;;;;9.65;7.10;;;;;;;;;;5107004;27;20024;-82
2022/10/31 07:06:35;;;;;;;8.25;6.28;;;;;;;;;;5101492;27;20024;-81
2022/10/31 07:09:01;;;;;;;10.40;6.13;;;;;;;;;;5130353;27;20039;-81
2022/10/31 07:11:33;;;;;;;10.27;5.93;;;;;;;;;;5127903;27;20023;-78
2022/10/31 07:14:24;;;;;;;12.95;8.15;;;;;;;;;;5120953;27;20049;-82
2022/10/31 07:16:51;;;;;;;10.38;7.00;;;;;;;;;;5110658;27;20419;-81
2022/10/31 07:19:27;;;;;;;9.90;6.40;;;;;;;;;;5130150;27;20366;-81
2022/10/31 07:21:58;;;;;;;9.30;5.68;;;;;;;;;;5133337;27;20027;-77
2022/10/31 07:24:25;;;;;;;9.05;5.22;;;;;;;;;;5132759;27;20054;-83
2022/10/31 07:26:51;;;;;;;10.63;6.72;;;;;;;;;;5121243;27;20030;-84
2022/10/31 07:29:17;;;;;;;11.75;6.10;;;;;;;;;;5128712;27;20121;-81
2022/10/31 07:31:49;;;;;;;10.32;6.35;;;;;;;;;;5131903;27;20023;-83
2022/10/31 07:34:21;;;;;;;10.02;6.13;;;;;;;;;;5133426;27;20024;-82
2022/10/31 07:36:55;;;;;;;10.80;6.07;;;;;;;;;;5128923;27;20023;-84
2022/10/31 07:39:21;;;;;;;16.30;12.35;;;;;;;;;;5120353;27;20028;-83
2022/10/31 07:41:56;;;;;;;12.15;9.00;;;;;;;;;;5125609;27;20059;-84
2022/10/31 07:44:22;;;;;;;9.73;5.93;;;;;;;;;;5131818;27;20113;-79
2022/10/31 07:46:48;;;;;;;11.55;6.90;;;;;;;;;;5129945;27;20106;-83
2022/10/31 07:49:14;;;;;;;9.60;5.35;;;;;;;;;;5125046;27;20493;-79
2022/10/31 07:51:40;;;;;;;10.60;6.65;;;;;;;;;;5128705;27;20059;-82
2022/10/31 07:54:06;;;;;;;13.98;7.05;;;;;;;;;;5132700;27;20034;-80
2022/10/31 07:56:32;;;;;;;13.85;6.97;;;;;;;;;;5133557;27;20035;-83
2022/10/31 07:58:58;;;;;;;11.45;6.03;;;;;;;;;;5109958;28;20026;-81
2022/10/31 08:01:24;;;;;;;8.70;5.70;;;;;;;;;;5118399;27;20501;-83
2022/10/31 08:03:50;;;;;;;8.57;5.95;;;;;;;;;;5128762;27;20039;-78
2022/10/31 08:06:16;;;;;;;24.17;19.75;;;;;;;;;;5131485;27;20474;-83
2022/10/31 08:08:43;;;;;;;14.77;8.43;;;;;;;;;;5115240;27;20406;-88
2022/10/31 08:11:35;;;;;;;29.60;24.52;;;;;;;;;;5133900;27;20023;-85
2022/10/31 08:14:02;;;;;;;12.20;7.07;;;;;;;;;;5110846;27;20063;-82
2022/10/31 08:16:28;;;;;;;9.93;6.70;;;;;;;;;;5126815;27;20094;-82
2022/10/31 08:18:55;;;;;;;11.13;5.80;;;;;;;;;;5129202;27;20027;-82
2022/10/31 08:21:21;;;;;;;9.27;5.40;;;;;;;;;;5141054;27;20023;-83
2022/10/31 08:23:48;;;;;;;10.43;6.43;;;;;;;;;;5118454;27;20035;-81
2022/10/31 08:26:16;;;;;;;7.97;5.70;;;;;;;;;;5128978;27;20408;-86
2022/10/31 08:28:42;;;;;;;10.82;6.03;;;;;;;;;;5133328;27;20031;-82
2022/10/31 08:31:09;;;;;;;10.52;7.10;;;;;;;;;;5131896;27;20019;-82
2022/10/31 08:33:36;;;;;;;8.98;5.95;;;;;;;;;;5113191;28;20028;-81
2022/10/31 08:36:02;;;;;;;9.18;4.97;;;;;;;;;;5124777;27;20046;-85
2022/10/31 08:38:28;;;;;;;7.00;5.47;;;;;;;;;;5132378;27;20027;-80
2022/10/31 08:40:54;;;;;;;8.55;6.47;;;;;;;;;;5127729;27;20107;-82
2022/10/31 08:43:20;;;;;;;10.02;5.20;;;;;;;;;;5128423;27;20061;-85
2022/10/31 08:45:49;;;;;;;9.23;5.28;;;;;;;;;;5120134;27;20538;-84
2022/10/31 08:48:16;;;;;;;8.70;5.40;;;;;;;;;;5117187;27;20023;-84
2022/10/31 08:50:43;;;;;;;10.02;5.93;;;;;;;;;;5133904;27;20058;-84
2022/10/31 08:53:14;;;;;;;7.47;5.40;;;;;;;;;;5132505;27;20051;-83
2022/10/31 08:55:40;;;;;;;10.05;5.10;;;;;;;;;;5129237;27;20059;-81
2022/10/31 08:58:07;;;;;;;7.78;5.65;;;;;;;;;;5132788;27;20489;-82
2022/10/31 09:00:34;;;;;;;8.98;5.45;;;;;;;;;;5129245;27;20019;-80
2022/10/31 09:03:02;;;;;;;10.38;6.28;;;;;;;;;;5131380;27;20504;-82
2022/10/31 09:05:28;;;;;;;11.18;5.82;;;;;;;;;;5132245;27;20497;-84
2022/10/31 09:07:58;;;;;;;9.05;5.30;;;;;;;;;;5114087;27;20022;-84
2022/10/31 09:10:24;;;;;;;9.40;5.72;;;;;;;;;;5126983;27;20085;-85
2022/10/31 09:12:57;;;;;;;7.07;4.38;;;;;;;;;;5112543;27;20024;-84
2022/10/31 09:15:24;;;;;;;8.38;5.55;;;;;;;;;;5127392;27;20016;-84
2022/10/31 09:17:50;;;;;;;9.05;4.93;;;;;;;;;;5131998;27;20100;-84
2022/10/31 09:20:22;;;;;;;8.23;4.90;;;;;;;;;;5126599;27;20019;-80
2022/10/31 09:22:56;;;;;;;15.50;7.18;;;;;;;;;;5111883;27;20023;-82
2022/10/31 09:25:22;;;;;;;13.90;5.78;;;;;;;;;;5111015;27;20015;-86
2022/10/31 09:27:48;;;;;;;11.15;5.07;;;;;;;;;;5132676;27;20038;-79
2022/10/31 09:30:14;;;;;;;8.40;5.15;;;;;;;;;;5132672;27;20031;-85
2022/10/31 09:32:40;;;;;;;9.40;5.20;;;;;;;;;;5131426;27;20083;-84
2022/10/31 09:35:07;;;;;;;8.30;5.60;;;;;;;;;;5124834;27;20031;-84
2022/10/31 09:37:33;;;;;;;9.27;5.93;;;;;;;;;;5139003;27;20058;-84
2022/10/31 09:39:59;;;;;;;8.50;5.07;;;;;;;;;;5124124;27;20030;-84
2022/10/31 09:42:32;;;;;;;9.25;5.45;;;;;;;;;;5112122;27;20375;-83
2022/10/31 09:45:10;;;;;;;7.82;4.75;;;;;;;;;;5124151;27;20087;-87
2022/10/31 09:47:55;;;;;;;11.10;5.38;;;;;;;;;;5129390;27;20022;-85
2022/10/31 09:50:40;;;;;;;10.20;4.78;;;;;;;;;;5125973;27;20035;-82
2022/10/31 09:53:06;;;;;;;;;;;;;;;;;;5127752;27;20122;-79
2022/10/31 09:55:36;;;;;;;12.68;8.63;;;;;;;;;;5124491;27;20451;-81
2022/10/31 09:58:03;;;;;;;11.10;6.15;;;;;;;;;;5117455;27;20032;-80
2022/10/31 10:00:29;;;;;;;12.07;5.80;;;;;;;;;;5142774;27;20374;-85
2022/10/31 10:03:14;;;;;;;7.45;5.00;;;;;;;;;;5113895;27;20023;-82
2022/10/31 10:05:54;;;;;;;8.82;4.97;;;;;;;;;;5125395;27;20023;-83
2022/10/31 10:08:27;;;;;;;10.23;6.13;;;;;;;;;;5123526;27;20031;-82
2022/10/31 10:11:13;;;;;;;7.88;5.00;;;;;;;;;;5129586;27;20064;-84
2022/10/31 10:13:43;;;;;;;7.03;4.68;;;;;;;;;;5129211;27;20019;-83
2022/10/31 10:16:13;;;;;;;9.82;4.70;;;;;;;;;;5131141;27;20019;-83
2022/10/31 10:18:57;;;;;;;8.15;4.70;;;;;;;;;;5116376;27;20035;-85
2022/10/31 10:21:23;;;;;;;;;;;;;;;;;;5128954;28;20068;-80
2022/10/31 10:23:58;;;;;;;6.93;4.03;;;;;;;;;;5124942;28;20366;-87
2022/10/31 10:26:35;;;;;;;5.93;4.25;;;;;;;;;;5131982;28;20023;-82
2022/10/31 10:29:02;;;;;;;9.25;4.15;;;;;;;;;;5130872;28;20027;-87
2022/10/31 10:31:31;;;;;;;10.10;5.10;;;;;;;;;;5130848;28;20019;-84
2022/10/31 10:34:08;;;;;;;9.00;4.88;;;;;;;;;;5113053;28;20023;-86
2022/10/31 10:36:47;;;;;;;8.43;4.05;;;;;;;;;;5121695;28;20027;-83
2022/10/31 10:39:18;;;;;;;6.45;4.28;;;;;;;;;;5093065;28;20027;-86
2022/10/31 10:43:18;;;;;;;6.07;4.60;;;;;;;;;;5120928;28;20015;-83
2022/10/31 10:50:10;;;;;;;7.22;3.72;;;;;;;;;;5129168;28;20079;-81
2022/10/31 10:52:36;;;;;;;7.30;4.70;;;;;;;;;;5125050;28;20047;-81
2022/10/31 10:55:08;;;;;;;10.07;3.97;;;;;;;;;;5110922;28;20057;-85
2022/10/31 10:57:46;;;;;;;8.48;4.53;;;;;;;;;;5117356;28;20027;-85
2022/10/31 11:00:23;;;;;;;9.27;4.30;;;;;;;;;;5131374;28;20076;-85
2022/10/31 11:02:49;;;;;;;7.90;4.10;;;;;;;;;;5131052;28;20110;-82
2022/10/31 11:05:20;;;;;;;9.70;4.55;;;;;;;;;;5128135;28;20066;-82
2022/10/31 11:07:47;;;;;;;6.80;4.25;;;;;;;;;;5128273;28;20125;-80
2022/10/31 11:10:14;;;;;;;7.60;3.70;;;;;;;;;;5127650;28;20038;-87
2022/10/31 11:12:40;;;;;;;7.53;3.95;;;;;;;;;;5124263;27;20012;-84
2022/10/31 11:15:08;;;;;;;8.80;3.80;;;;;;;;;;5119158;28;20072;-84
2022/10/31 11:17:39;;;;;;;8.43;3.90;;;;;;;;;;5124913;27;20081;-82
2022/10/31 11:20:17;;;;;;;7.68;3.53;;;;;;;;;;5122435;27;20031;-86
2022/10/31 11:22:44;;;;;;;6.95;3.90;;;;;;;;;;5130220;28;20034;-85
2022/10/31 11:25:19;;;;;;;6.32;3.95;;;;;;;;;;5131783;27;20035;-80
2022/10/31 11:27:46;;;;;;;7.82;4.72;;;;;;;;;;5117821;27;20103;-81
2022/10/31 11:30:13;;;;;;;6.25;2.95;;;;;;;;;;5129244;27;21533;-80
2022/10/31 11:32:45;;;;;;;13.65;5.47;;;;;;;;;;5132277;27;20028;-83
2022/10/31 11:35:13;;;;;;;9.35;3.67;;;;;;;;;;5127897;27;20049;-82
2022/10/31 11:37:42;;;;;;;5.18;3.10;;;;;;;;;;5133667;27;20023;-79
2022/10/31 11:40:16;;;;;;;8.10;4.65;;;;;;;;;;5132088;27;20087;-74
2022/10/31 11:42:43;;;;;;;112.93;45.00;;;;;;;;;;5113514;27;20076;-75
2022/10/31 11:45:28;;;;;;;25.42;12.30;;;;;;;;;;5131826;27;20030;-74
2022/10/31 11:47:55;;;;;;;57.63;23.05;;;;;;;;;;5131864;27;20034;-75
2022/10/31 11:50:33;;;;;;;16.38;6.72;;;;;;;;;;5134025;27;20452;-74
2022/10/31 11:53:00;;;;;;;6.40;3.20;;;;;;;;;;5133851;27;20589;-73
2022/10/31 11:55:45;;;;;;;7.18;3.40;;;;;;;;;;5132622;27;20092;-74
2022/10/31 11:58:30;;;;;;;13.35;4.63;;;;;;;;;;5133661;27;20031;-74
2022/10/31 12:00:56;;;;;;;10.80;4.03;;;;;;;;;;5125494;27;20035;-75
2022/10/31 12:03:22;;;;;;;5.35;3.50;;;;;;;;;;5111608;27;20055;-75
2022/10/31 12:05:52;;;;;;;7.18;3.00;;;;;;;;;;5131848;27;20024;-76
2022/10/31 12:08:18;;;;;;;8.13;3.85;;;;;;;;;;5131773;27;20080;-80
2022/10/31 12:10:57;;;;;;;8.55;3.55;;;;;;;;;;5126132;27;20440;-83
2022/10/31 12:13:43;;;;;;;22.98;9.85;;;;;;;;;;5114458;27;20064;-85
2022/10/31 12:16:16;;;;;;;12.50;6.38;;;;;;;;;;5132514;27;20046;-74
2022/10/31 12:18:42;;;;;;;23.48;9.85;;;;;;;;;;5132165;27;20469;-76
2022/10/31 12:21:21;;;;;;;10.70;5.47;;;;;;;;;;5126281;27;20023;-76
2022/10/31 12:23:50;;;;;;;9.48;5.32;;;;;;;;;;5127504;27;20035;-75
2022/10/31 12:26:19;;;;;;;7.10;3.53;;;;;;;;;;5132852;27;20072;-75
2022/10/31 12:29:04;;;;;;;10.45;4.93;;;;;;;;;;5127167;27;20030;-74
2022/10/31 12:31:33;;;;;;;11.70;5.22;;;;;;;;;;5129802;27;20075;-74
2022/10/31 12:34:17;;;;;;;11.20;5.65;;;;;;;;;;5132019;27;20498;-74
2022/10/31 12:37:02;;;;;;;8.40;4.35;;;;;;;;;;5131096;27;20039;-76
2022/10/31 12:39:47;;;;;;;7.60;3.08;;;;;;;;;;5132092;27;20102;-78
2022/10/31 12:42:22;;;;;;;10.60;3.90;;;;;;;;;;5113270;27;20908;-75
2022/10/31 12:44:54;;;;;;;9.90;4.55;;;;;;;;;;5130406;27;20050;-71
2022/10/31 12:47:29;;;;;;;45.25;18.70;;;;;;;;;;5111402;27;21294;-75
2022/10/31 12:50:02;;;;;;;43.88;17.52;;;;;;;;;;5131219;27;20093;-76
2022/10/31 12:52:28;;;;;;;41.28;17.42;;;;;;;;;;5133781;27;20092;-76
2022/10/31 12:55:03;;;;;;;18.63;10.35;;;;;;;;;;5132595;27;20031;-72
2022/10/31 12:57:40;;;;;;;13.25;4.82;;;;;;;;;;5121675;27;20028;-72
2022/10/31 13:00:17;;;;;;;12.77;6.05;;;;;;;;;;5114631;28;20163;-74
2022/10/31 13:02:43;;;;;;;18.88;7.75;;;;;;;;;;5117250;27;20030;-73
2022/10/31 13:05:27;;;;;;;16.23;8.13;;;;;;;;;;5120553;27;20398;-75
2022/10/31 13:07:56;;;;;;;13.60;4.97;;;;;;;;;;5125619;27;20042;-74
2022/10/31 13:10:31;;;;;;;9.77;3.17;;;;;;;;;;5121897;27;20041;-75
2022/10/31 13:13:18;;;;;;;8.98;3.70;;;;;;;;;;5135676;27;20049;-74
2022/10/31 13:15:52;;;;;;;8.65;3.75;;;;;;;;;;5120633;27;20359;-75
2022/10/31 13:18:25;;;;;;;5.75;3.10;;;;;;;;;;5128643;27;20027;-76
2022/10/31 13:20:52;;;;;;;9.40;4.20;;;;;;;;;;5134042;27;20142;-73
2022/10/31 13:23:27;;;;;;;7.60;4.03;;;;;;;;;;5131591;27;20363;-75
2022/10/31 13:25:54;;;;;;;9.27;3.80;;;;;;;;;;5151895;27;20027;-87
2022/10/31 13:28:42;;;;;;;8.38;4.07;;;;;;;;;;5124762;27;20023;-83
2022/10/31 13:31:11;;;;;;;6.07;3.85;;;;;;;;;;5132244;27;20023;-85
2022/10/31 13:34:02;;;;;;;10.00;5.03;;;;;;;;;;5124169;27;20015;-86
2022/10/31 13:36:42;;;;;;;8.02;4.30;;;;;;;;;;5104442;27;20031;-90
2022/10/31 13:39:21;;;;;;;5.35;3.50;;;;;;;;;;5130254;27;20114;-83
2022/10/31 13:42:05;;;;;;;8.85;4.53;;;;;;;;;;5131182;27;20562;-81
2022/10/31 13:44:37;;;;;;;6.68;3.35;;;;;;;;;;5121585;27;20027;-81
2022/10/31 13:47:04;;;;;;;8.10;3.97;;;;;;;;;;5131345;27;20091;-86
2022/10/31 13:49:33;;;;;;;7.90;3.95;;;;;;;;;;5132316;27;20053;-81
2022/10/31 13:52:25;;;;;;;9.23;4.05;;;;;;;;;;5114154;27;20057;-84
2022/10/31 13:54:55;;;;;;;6.00;3.72;;;;;;;;;;5114354;27;20047;-81
2022/10/31 13:57:27;;;;;;;9.18;6.90;;;;;;;;;;5132949;27;20019;-81
2022/10/31 13:59:58;;;;;;;9.32;4.32;;;;;;;;;;5127967;27;20851;-80
2022/10/31 14:02:34;;;;;;;9.60;5.90;;;;;;;;;;5128398;27;20366;-84
2022/10/31 14:05:03;;;;;;;7.75;4.05;;;;;;;;;;5132096;27;20530;-82
2022/10/31 14:07:30;;;;;;;14.90;4.50;;;;;;;;;;5132004;27;20098;-81
2022/10/31 14:10:02;;;;;;;7.35;3.70;;;;;;;;;;5131831;27;20027;-84
2022/10/31 14:12:46;;;;;;;6.93;3.88;;;;;;;;;;5127994;27;20110;-84
2022/10/31 14:15:19;;;;;;;10.68;4.53;;;;;;;;;;5130207;28;20023;-84
2022/10/31 14:17:47;;;;;;;12.70;9.60;;;;;;;;;;5131779;28;20031;-85
2022/10/31 14:20:13;;;;;;;14.38;7.25;;;;;;;;;;5096466;28;20023;-85
2022/10/31 14:22:41;;;;;;;13.13;7.15;;;;;;;;;;5103059;28;20028;-80
2022/10/31 14:25:30;;;;;;;10.60;5.45;;;;;;;;;;5132488;27;20037;-82
2022/10/31 14:28:00;;;;;;;9.48;4.97;;;;;;;;;;5113140;28;20118;-83
2022/10/31 14:30:28;;;;;;;7.97;4.68;;;;;;;;;;5130867;28;20055;-80
2022/10/31 14:32:58;;;;;;;8.18;4.03;;;;;;;;;;5114331;28;20382;-81
2022/10/31 14:35:26;;;;;;;8.93;4.60;;;;;;;;;;5133691;28;20031;-82
2022/10/31 14:37:58;;;;;;;8.43;4.32;;;;;;;;;;5133944;28;20115;-79
2022/10/31 14:40:31;;;;;;;7.80;3.75;;;;;;;;;;5133122;28;20032;-80
2022/10/31 14:43:04;;;;;;;9.63;4.05;;;;;;;;;;5133017;28;20098;-80
2022/10/31 14:45:39;;;;;;;7.43;3.73;;;;;;;;;;5139514;27;20161;-80
2022/10/31 14:48:24;;;;;;;6.78;3.78;;;;;;;;;;5136825;27;20019;-82
2022/10/31 14:51:00;;;;;;;10.63;3.70;;;;;;;;;;5114434;28;20490;-86
2022/10/31 14:53:32;;;;;;;9.52;4.88;;;;;;;;;;5122881;28;20094;-81
2022/10/31 14:55:58;;;;;;;9.70;5.40;;;;;;;;;;5128159;27;20030;-81
2022/10/31 14:58:45;;;;;;;8.00;4.43;;;;;;;;;;5132473;28;20054;-84
2022/10/31 15:01:21;;;;;;;14.85;5.15;;;;;;;;;;5135431;27;20027;-78
2022/10/31 15:03:47;;;;;;;8.40;5.20;;;;;;;;;;5137199;27;20092;-79